Time,TemperatureF,DewpointF,PressureIn,WindDirection,WindDirectionDegrees,WindSpeedMPH,WindSpeedGustMPH,Humidity,HourlyPrecipIn,Conditions,Clouds,dailyrainin,SoftwareType,DateUTC
2013-03-01 00:02:00,24.0,18.0,-100.00,NNE,15,7.0,12.0,74,0.00,,,0.00,,2013-03-01 06:02:00,
2013-03-01 00:11:00,24.0,18.0,-100.00,North,10,9.0,11.0,74,0.00,,,0.00,,2013-03-01 06:11:00,
2013-03-01 00:21:00,24.0,18.0,-100.00,NNE,20,9.0,13.0,73,0.00,,,0.00,,2013-03-01 06:21:00,
2013-03-01 00:32:00,24.0,18.0,-100.00,NE,35,6.0,11.0,74,0.00,,,0.00,,2013-03-01 06:32:00,
2013-03-01 00:42:00,24.0,16.0,-100.00,NE,55,11.0,14.0,70,0.00,,,0.00,,2013-03-01 06:42:00,
2013-03-01 00:52:00,24.0,16.0,-100.00,ENE,65,9.0,13.0,70,0.00,,,0.00,,2013-03-01 06:52:00,
2013-03-01 01:02:00,24.0,16.0,-100.00,ENE,65,7.0,9.0,71,0.00,,,0.00,,2013-03-01 07:02:00,
2013-03-01 01:11:00,24.0,16.0,-100.00,ENE,65,7.0,9.0,71,0.00,,,0.00,,2013-03-01 07:11:00,
2013-03-01 01:22:00,24.0,16.0,-100.00,ENE,60,7.0,10.0,72,0.00,,,0.00,,2013-03-01 07:22:00,
2013-03-01 01:32:00,24.0,16.0,-100.00,NE,55,9.0,11.0,72,0.00,,,0.00,,2013-03-01 07:32:00,
2013-03-01 01:42:00,24.0,16.0,-100.00,NE,55,8.0,11.0,73,0.00,,,0.00,,2013-03-01 07:42:00,
2013-03-01 01:51:00,24.0,16.0,-100.00,ENE,60,6.0,12.0,73,0.00,,,0.00,,2013-03-01 07:51:00,
2013-03-01 02:02:00,24.0,16.0,-100.00,ENE,70,8.0,12.0,71,0.00,,,0.00,,2013-03-01 08:02:00,
2013-03-01 02:11:00,23.0,18.0,-100.00,NE,55,6.0,9.0,75,0.00,,,0.00,,2013-03-01 08:11:00,
2013-03-01 02:22:00,23.0,18.0,-100.00,NE,55,7.0,9.0,76,0.00,,,0.00,,2013-03-01 08:22:00,
2013-03-01 02:32:00,24.0,16.0,-100.00,ENE,60,9.0,12.0,72,0.00,,,0.00,,2013-03-01 08:32:00,
2013-03-01 02:42:00,23.0,16.0,-100.00,NE,55,7.0,9.0,72,0.00,,,0.00,,2013-03-01 08:42:00,
2013-03-01 02:52:00,23.0,16.0,-100.00,ENE,60,7.0,9.0,72,0.00,,,0.00,,2013-03-01 08:52:00,
2013-03-01 03:02:00,23.0,16.0,-100.00,NE,55,6.0,10.0,72,0.00,,,0.00,,2013-03-01 09:02:00,
2013-03-01 03:11:00,23.0,16.0,-100.00,NE,45,9.0,12.0,72,0.00,,,0.00,,2013-03-01 09:11:00,
2013-03-01 03:22:00,23.0,16.0,-100.00,NE,50,6.0,11.0,72,0.00,,,0.00,,2013-03-01 09:22:00,
2013-03-01 03:32:00,23.0,16.0,-100.00,NE,45,7.0,10.0,72,0.00,,,0.00,,2013-03-01 09:32:00,
2013-03-01 03:42:00,23.0,16.0,-100.00,NE,55,7.0,11.0,72,0.00,,,0.00,,2013-03-01 09:42:00,
2013-03-01 03:52:00,23.0,16.0,-100.00,NE,45,7.0,10.0,72,0.00,,,0.00,,2013-03-01 09:52:00,
2013-03-01 04:02:00,23.0,16.0,-100.00,NE,50,9.0,11.0,72,0.00,,,0.00,,2013-03-01 10:02:00,
2013-03-01 04:11:00,23.0,16.0,-100.00,NE,55,7.0,11.0,73,0.00,,,0.00,,2013-03-01 10:11:00,
2013-03-01 04:21:00,23.0,16.0,-100.00,NE,55,8.0,11.0,73,0.00,,,0.00,,2013-03-01 10:21:00,
2013-03-01 04:32:00,23.0,16.0,-100.00,NE,50,9.0,12.0,74,0.00,,,0.00,,2013-03-01 10:32:00,
2013-03-01 04:42:00,22.0,16.0,-100.00,NE,55,9.0,12.0,73,0.00,,,0.00,,2013-03-01 10:42:00,
2013-03-01 04:52:00,22.0,16.0,-100.00,NE,50,7.0,11.0,73,0.00,,,0.00,,2013-03-01 10:52:00,
2013-03-01 05:01:00,22.0,16.0,-100.00,NE,50,7.0,9.0,73,0.00,,,0.00,,2013-03-01 11:01:00,
2013-03-01 05:11:00,22.0,16.0,-100.00,NE,55,5.0,11.0,73,0.00,,,0.00,,2013-03-01 11:11:00,
2013-03-01 05:22:00,22.0,16.0,-100.00,NE,45,3.0,7.0,73,0.00,,,0.00,,2013-03-01 11:22:00,
2013-03-01 05:32:00,22.0,14.0,-100.00,NE,40,6.0,7.0,72,0.00,,,0.00,,2013-03-01 11:32:00,
2013-03-01 05:42:00,22.0,14.0,-100.00,NE,35,4.0,8.0,71,0.00,,,0.00,,2013-03-01 11:42:00,
2013-03-01 05:52:00,22.0,14.0,-100.00,NNE,25,6.0,7.0,72,0.00,,,0.00,,2013-03-01 11:52:00,
2013-03-01 06:01:00,22.0,14.0,-100.00,NNE,20,5.0,7.0,73,0.00,,,0.00,,2013-03-01 12:01:00,
2013-03-01 06:11:00,22.0,16.0,-100.00,NNE,25,4.0,7.0,74,0.00,,,0.00,,2013-03-01 12:11:00,
2013-03-01 06:21:00,22.0,16.0,-100.00,NE,35,7.0,8.0,76,0.00,,,0.00,,2013-03-01 12:21:00,
2013-03-01 06:32:00,22.0,16.0,-100.00,NNE,30,6.0,9.0,78,0.00,,,0.00,,2013-03-01 12:32:00,
2013-03-01 06:42:00,22.0,16.0,-100.00,NE,35,6.0,8.0,80,0.00,,,0.00,,2013-03-01 12:42:00,
2013-03-01 06:52:00,22.0,18.0,-100.00,NE,35,4.0,7.0,80,0.00,,,0.00,,2013-03-01 12:52:00,
2013-03-01 07:01:00,22.0,16.0,-100.00,NNE,30,4.0,7.0,80,0.00,,,0.00,,2013-03-01 13:01:00,
2013-03-01 07:11:00,22.0,16.0,-100.00,NNE,30,4.0,7.0,80,0.00,,,0.00,,2013-03-01 13:11:00,
2013-03-01 07:21:00,22.0,16.0,-100.00,NE,45,6.0,9.0,76,0.00,,,0.00,,2013-03-01 13:21:00,
2013-03-01 07:32:00,22.0,16.0,-100.00,NE,45,4.0,7.0,75,0.00,,,0.00,,2013-03-01 13:32:00,
2013-03-01 07:41:00,22.0,16.0,-100.00,NE,50,4.0,6.0,75,0.00,,,0.00,,2013-03-01 13:41:00,
2013-03-01 07:51:00,22.0,16.0,-100.00,ENE,60,4.0,7.0,74,0.00,,,0.00,,2013-03-01 13:51:00,
2013-03-01 08:01:00,23.0,16.0,-100.00,NE,55,6.0,9.0,73,0.00,,,0.00,,2013-03-01 14:01:00,
2013-03-01 08:11:00,23.0,16.0,-100.00,ENE,75,6.0,10.0,73,0.00,,,0.00,,2013-03-01 14:11:00,
2013-03-01 08:21:00,23.0,16.0,-100.00,ENE,70,6.0,9.0,73,0.00,,,0.00,,2013-03-01 14:21:00,
2013-03-01 08:32:00,23.0,16.0,-100.00,ENE,65,6.0,9.0,73,0.00,,,0.00,,2013-03-01 14:32:00,
2013-03-01 08:41:00,23.0,16.0,-100.00,ENE,70,7.0,10.0,72,0.00,,,0.00,,2013-03-01 14:41:00,
2013-03-01 08:52:00,23.0,16.0,-100.00,ENE,70,4.0,9.0,72,0.00,,,0.00,,2013-03-01 14:52:00,
2013-03-01 09:01:00,23.0,16.0,-100.00,East,85,5.0,8.0,72,0.00,,,0.00,,2013-03-01 15:01:00,
2013-03-01 09:11:00,23.0,16.0,-100.00,East,80,6.0,8.0,71,0.00,,,0.00,,2013-03-01 15:11:00,
2013-03-01 09:21:00,23.0,16.0,-100.00,East,85,6.0,9.0,70,0.00,,,0.00,,2013-03-01 15:21:00,
2013-03-01 09:31:00,24.0,16.0,-100.00,East,80,5.0,7.0,69,0.00,,,0.00,,2013-03-01 15:31:00,
2013-03-01 09:42:00,24.0,16.0,-100.00,East,80,5.0,9.0,70,0.00,,,0.00,,2013-03-01 15:42:00,
2013-03-01 09:52:00,24.0,16.0,-100.00,East,85,5.0,9.0,68,0.00,,,0.00,,2013-03-01 15:52:00,
2013-03-01 10:01:00,24.0,16.0,-100.00,East,85,4.0,7.0,69,0.00,,,0.00,,2013-03-01 16:01:00,
2013-03-01 10:11:00,25.0,16.0,-100.00,NE,35,0.0,6.0,67,0.00,,,0.00,,2013-03-01 16:11:00,
2013-03-01 10:21:00,25.0,16.0,-100.00,NE,50,0.0,4.0,67,0.00,,,0.00,,2013-03-01 16:21:00,
2013-03-01 10:32:00,24.0,14.0,-100.00,NNE,30,9.0,12.0,64,0.00,,,0.00,,2013-03-01 16:32:00,
2013-03-01 10:41:00,25.0,16.0,-100.00,NE,35,6.0,10.0,65,0.00,,,0.00,,2013-03-01 16:41:00,
2013-03-01 10:51:00,25.0,14.0,-100.00,NNE,25,7.0,12.0,64,0.00,,,0.00,,2013-03-01 16:51:00,
2013-03-01 11:01:00,25.0,16.0,-100.00,NNE,15,10.0,12.0,67,0.00,,,0.00,,2013-03-01 17:01:00,
2013-03-01 11:11:00,25.0,16.0,-100.00,North,10,8.0,12.0,66,0.00,,,0.00,,2013-03-01 17:11:00,
2013-03-01 11:21:00,25.0,16.0,-100.00,North,10,10.0,12.0,64,0.00,,,0.00,,2013-03-01 17:21:00,
2013-03-01 11:31:00,26.0,16.0,-100.00,NNE,30,7.0,12.0,63,0.00,,,0.00,,2013-03-01 17:31:00,
2013-03-01 11:41:00,26.0,16.0,-100.00,North,0,9.0,12.0,64,0.00,,,0.00,,2013-03-01 17:41:00,
2013-03-01 11:52:00,26.0,16.0,-100.00,NNE,15,9.0,12.0,64,0.00,,,0.00,,2013-03-01 17:52:00,
2013-03-01 12:01:00,26.0,16.0,-100.00,North,5,9.0,13.0,66,0.00,,,0.00,,2013-03-01 18:01:00,
2013-03-01 12:12:00,26.0,16.0,-100.00,North,10,11.0,14.0,67,0.00,,,0.00,,2013-03-01 18:12:00,
2013-03-01 12:22:00,26.0,16.0,-100.00,NNE,15,8.0,14.0,64,0.00,,,0.00,,2013-03-01 18:22:00,
2013-03-01 12:31:00,26.0,16.0,-100.00,North,0,11.0,12.0,65,0.00,,,0.00,,2013-03-01 18:31:00,
2013-03-01 12:41:00,26.0,16.0,-100.00,North,0,12.0,16.0,66,0.00,,,0.00,,2013-03-01 18:41:00,
2013-03-01 12:52:00,26.0,16.0,-100.00,North,0,7.0,16.0,64,0.00,,,0.00,,2013-03-01 18:52:00,
2013-03-01 13:01:00,26.0,14.0,-100.00,NNE,30,9.0,14.0,62,0.00,,,0.00,,2013-03-01 19:01:00,
2013-03-01 13:11:00,26.0,14.0,-100.00,NNE,30,9.0,14.0,62,0.00,,,0.00,,2013-03-01 19:11:00,
2013-03-01 13:21:00,26.0,16.0,-100.00,NNW,340,11.0,17.0,67,0.00,,,0.00,,2013-03-01 19:21:00,
2013-03-01 13:32:00,26.0,16.0,-100.00,NNE,15,12.0,17.0,65,0.00,,,0.00,,2013-03-01 19:32:00,
2013-03-01 13:42:00,27.0,16.0,-100.00,NE,35,11.0,16.0,64,0.00,,,0.00,,2013-03-01 19:42:00,
2013-03-01 13:52:00,26.0,18.0,-100.00,North,0,10.0,16.0,68,0.00,,,0.00,,2013-03-01 19:52:00,
2013-03-01 14:01:00,26.0,16.0,-100.00,North,0,11.0,16.0,66,0.00,,,0.00,,2013-03-01 20:01:00,
2013-03-01 14:11:00,26.0,16.0,-100.00,North,355,12.0,18.0,65,0.00,,,0.00,,2013-03-01 20:11:00,
2013-03-01 14:21:00,26.0,16.0,-100.00,North,0,11.0,17.0,67,0.00,,,0.00,,2013-03-01 20:21:00,
2013-03-01 14:31:00,26.0,16.0,-100.00,North,5,9.0,15.0,66,0.00,,,0.00,,2013-03-01 20:31:00,
2013-03-01 14:41:00,26.0,18.0,-100.00,North,355,11.0,16.0,69,0.00,,,0.00,,2013-03-01 20:41:00,
2013-03-01 14:52:00,26.0,18.0,-100.00,North,10,11.0,16.0,69,0.00,,,0.00,,2013-03-01 20:52:00,
2013-03-01 15:01:00,26.0,16.0,-100.00,North,5,10.0,16.0,67,0.00,,,0.00,,2013-03-01 21:01:00,
2013-03-01 15:11:00,26.0,16.0,-100.00,North,10,10.0,16.0,66,0.00,,,0.00,,2013-03-01 21:11:00,
2013-03-01 15:21:00,26.0,16.0,-100.00,North,10,10.0,15.0,65,0.00,,,0.00,,2013-03-01 21:21:00,
2013-03-01 15:31:00,26.0,16.0,-100.00,North,5,11.0,14.0,65,0.00,,,0.00,,2013-03-01 21:31:00,
2013-03-01 15:41:00,26.0,16.0,-100.00,North,5,9.0,17.0,68,0.00,,,0.00,,2013-03-01 21:41:00,
2013-03-01 15:51:00,26.0,16.0,-100.00,North,10,11.0,15.0,66,0.00,,,0.00,,2013-03-01 21:51:00,
2013-03-01 16:01:00,26.0,16.0,-100.00,NNE,15,11.0,14.0,64,0.00,,,0.00,,2013-03-01 22:01:00,
2013-03-01 16:11:00,26.0,16.0,-100.00,North,5,12.0,16.0,64,0.00,,,0.00,,2013-03-01 22:11:00,
2013-03-01 16:21:00,26.0,16.0,-100.00,North,0,9.0,13.0,65,0.00,,,0.00,,2013-03-01 22:21:00,
2013-03-01 16:31:00,26.0,16.0,-100.00,North,0,10.0,13.0,64,0.00,,,0.00,,2013-03-01 22:31:00,
2013-03-01 16:41:00,26.0,16.0,-100.00,North,350,11.0,14.0,64,0.00,,,0.00,,2013-03-01 22:41:00,
2013-03-01 16:51:00,26.0,16.0,-100.00,North,0,10.0,14.0,64,0.00,,,0.00,,2013-03-01 22:51:00,
2013-03-01 17:01:00,26.0,16.0,-100.00,North,0,10.0,14.0,64,0.00,,,0.00,,2013-03-01 23:01:00,
2013-03-01 17:11:00,26.0,16.0,-100.00,North,0,10.0,14.0,64,0.00,,,0.00,,2013-03-01 23:11:00,
2013-03-01 17:21:00,25.0,16.0,-100.00,North,0,10.0,12.0,66,0.00,,,0.00,,2013-03-01 23:21:00,
2013-03-01 17:31:00,25.0,16.0,-100.00,North,0,10.0,12.0,66,0.00,,,0.00,,2013-03-01 23:31:00,
2013-03-01 17:42:00,25.0,16.0,-100.00,North,0,10.0,12.0,66,0.00,,,0.00,,2013-03-01 23:42:00,
2013-03-01 17:52:00,25.0,16.0,-100.00,North,0,10.0,12.0,66,0.00,,,0.00,,2013-03-01 23:52:00,
2013-03-01 18:02:00,25.0,16.0,-100.00,North,0,10.0,12.0,66,0.00,,,0.00,,2013-03-02 00:02:00,
2013-03-01 18:42:00,21.0,14.0,-100.00,NNW,330,6.0,7.0,73,0.00,,,0.00,,2013-03-02 00:42:00,
2013-03-01 18:52:00,23.0,14.0,-100.00,NW,325,6.0,7.0,70,0.00,,,0.00,,2013-03-02 00:52:00,
2013-03-01 19:01:00,20.0,12.0,-100.00,NW,320,6.0,7.0,72,0.00,,,0.00,,2013-03-02 01:01:00,
2013-03-01 19:11:00,21.0,14.0,-100.00,NW,320,7.0,8.0,73,0.00,,,0.00,,2013-03-02 01:11:00,
2013-03-01 19:21:00,19.0,12.0,-100.00,NW,325,7.0,7.0,75,0.00,,,0.00,,2013-03-02 01:21:00,
2013-03-01 19:31:00,20.0,14.0,-100.00,NW,325,7.0,9.0,74,0.00,,,0.00,,2013-03-02 01:31:00,
2013-03-01 19:41:00,20.0,14.0,-100.00,NNW,330,7.0,9.0,73,0.00,,,0.00,,2013-03-02 01:41:00,
2013-03-01 19:51:00,20.0,12.0,-100.00,NW,325,7.0,9.0,74,0.00,,,0.00,,2013-03-02 01:51:00,
2013-03-01 20:01:00,17.0,10.0,-100.00,NNW,340,7.0,9.0,75,0.00,,,0.00,,2013-03-02 02:01:00,
2013-03-01 20:11:00,21.0,14.0,-100.00,NNW,340,7.0,9.0,73,0.00,,,0.00,,2013-03-02 02:11:00,
2013-03-01 20:21:00,19.0,12.0,-100.00,NNW,345,7.0,9.0,74,0.00,,,0.00,,2013-03-02 02:21:00,
2013-03-01 20:32:00,20.0,12.0,-100.00,NNW,345,7.0,9.0,72,0.00,,,0.00,,2013-03-02 02:32:00,
2013-03-01 20:41:00,20.0,12.0,-100.00,North,350,7.0,9.0,73,0.00,,,0.00,,2013-03-02 02:41:00,
2013-03-01 20:52:00,20.0,12.0,-100.00,North,355,7.0,9.0,71,0.00,,,0.00,,2013-03-02 02:52:00,
2013-03-01 21:01:00,18.0,10.0,-100.00,North,0,7.0,9.0,73,0.00,,,0.00,,2013-03-02 03:01:00,
2013-03-01 21:11:00,18.0,12.0,-100.00,North,5,9.0,9.0,74,0.00,,,0.00,,2013-03-02 03:11:00,
2013-03-01 21:21:00,17.0,10.0,-100.00,North,0,7.0,9.0,75,0.00,,,0.00,,2013-03-02 03:21:00,
2013-03-01 21:32:00,16.0,10.0,-100.00,North,0,7.0,8.0,75,0.00,,,0.00,,2013-03-02 03:32:00,
2013-03-01 21:41:00,18.0,10.0,-100.00,North,0,7.0,9.0,73,0.00,,,0.00,,2013-03-02 03:41:00,
2013-03-01 21:52:00,18.0,10.0,-100.00,North,5,9.0,11.0,74,0.00,,,0.00,,2013-03-02 03:52:00,
2013-03-01 22:01:00,16.0,10.0,-100.00,North,0,7.0,11.0,75,0.00,,,0.00,,2013-03-02 04:01:00,
2013-03-01 22:11:00,17.0,10.0,-100.00,North,5,6.0,7.0,75,0.00,,,0.00,,2013-03-02 04:11:00,
2013-03-01 22:21:00,18.0,12.0,-100.00,NNE,20,6.0,9.0,74,0.00,,,0.00,,2013-03-02 04:21:00,
2013-03-01 22:32:00,18.0,10.0,-100.00,NNE,20,6.0,9.0,73,0.00,,,0.00,,2013-03-02 04:32:00,
2013-03-01 22:41:00,19.0,12.0,-100.00,NNE,20,7.0,9.0,72,0.00,,,0.00,,2013-03-02 04:41:00,
2013-03-01 22:51:00,19.0,12.0,-100.00,NNE,20,7.0,10.0,71,0.00,,,0.00,,2013-03-02 04:51:00,
2013-03-01 23:02:00,18.0,10.0,-100.00,NNE,20,8.0,11.0,73,0.00,,,0.00,,2013-03-02 05:02:00,
2013-03-01 23:12:00,17.0,10.0,-100.00,NNE,20,7.0,10.0,74,0.00,,,0.00,,2013-03-02 05:12:00,
2013-03-01 23:22:00,17.0,10.0,-100.00,North,10,6.0,8.0,75,0.00,,,0.00,,2013-03-02 05:22:00,
2013-03-01 23:32:00,17.0,10.0,-100.00,North,10,6.0,7.0,75,0.00,,,0.00,,2013-03-02 05:32:00,
2013-03-01 23:42:00,14.0,9.0,-100.00,North,0,6.0,7.0,76,0.00,,,0.00,,2013-03-02 05:42:00,
2013-03-01 23:52:00,15.0,9.0,-100.00,North,0,4.0,6.0,78,0.00,,,0.00,,2013-03-02 05:52:00,